createdAt,value
2017-11-05T00:01:36.213Z,34.42
2017-11-05T00:04:05.891Z,32.03
2017-11-05T00:06:34.811Z,30.83
2017-11-05T00:09:04.847Z,33.83
2017-11-05T00:11:38.199Z,33.70
2017-11-05T00:14:07.087Z,32.28
2017-11-05T00:16:35.970Z,34.10
2017-11-05T00:19:04.895Z,31.17
2017-11-05T00:21:34.793Z,30.23
2017-11-05T00:24:03.770Z,37.53
2017-11-05T00:26:32.647Z,31.40
2017-11-05T00:29:01.639Z,29.50
2017-11-05T00:31:30.614Z,34.95
2017-11-05T00:33:59.671Z,33.47
2017-11-05T00:36:29.362Z,34.05
2017-11-05T00:38:59.009Z,31.60
2017-11-05T00:41:27.956Z,34.08
2017-11-05T00:43:57.724Z,32.85
2017-11-05T00:46:26.637Z,32.70
2017-11-05T00:48:55.506Z,34.78
2017-11-05T00:51:24.411Z,36.75
2017-11-05T00:53:55.052Z,33.00
2017-11-05T00:56:23.980Z,28.77
2017-11-05T00:58:54.174Z,29.83
2017-11-05T01:01:23.084Z,35.47
2017-11-05T01:03:55.796Z,33.08
2017-11-05T01:06:24.711Z,30.23
2017-11-05T01:08:55.332Z,32.70
2017-11-05T01:11:25.015Z,35.55
2017-11-05T01:13:56.324Z,30.02
2017-11-05T01:16:25.253Z,30.95
2017-11-05T01:18:54.589Z,30.48
2017-11-05T01:21:24.313Z,29.80
2017-11-05T01:23:53.286Z,30.73
2017-11-05T01:26:22.260Z,29.85
2017-11-05T01:28:51.218Z,31.50
2017-11-05T01:31:20.123Z,29.23
2017-11-05T01:33:49.839Z,26.95
2017-11-05T01:36:19.571Z,25.95
2017-11-05T01:38:48.518Z,25.52
2017-11-05T01:41:17.395Z,29.35
2017-11-05T01:43:46.618Z,26.10
2017-11-05T01:46:15.687Z,27.27
2017-11-05T01:48:44.639Z,28.33
2017-11-05T01:51:13.566Z,27.48
2017-11-05T01:53:42.468Z,24.87
2017-11-05T01:56:11.544Z,26.05
2017-11-05T01:58:40.500Z,23.38
2017-11-05T02:01:09.480Z,23.67
2017-11-05T02:03:39.178Z,22.95
2017-11-05T02:06:08.985Z,20.80
2017-11-05T02:08:37.987Z,24.75
2017-11-05T02:11:08.042Z,21.87
2017-11-05T02:13:36.975Z,21.45
2017-11-05T02:16:06.631Z,22.95
2017-11-05T02:18:35.520Z,24.95
2017-11-05T02:21:04.558Z,23.62
2017-11-05T02:23:33.506Z,24.98
2017-11-05T02:26:02.531Z,20.37
2017-11-05T02:28:31.578Z,20.60
2017-11-05T02:31:06.528Z,21.40
2017-11-05T02:33:35.519Z,22.42
2017-11-05T02:36:04.543Z,17.35
2017-11-05T02:38:33.432Z,18.58
2017-11-05T02:41:02.456Z,22.27
2017-11-05T02:43:31.370Z,17.60
2017-11-05T02:46:01.505Z,16.70
2017-11-05T02:48:30.527Z,20.40
2017-11-05T02:50:59.554Z,18.92
2017-11-05T02:53:28.603Z,18.12
2017-11-05T02:55:57.574Z,18.80
2017-11-05T02:58:26.529Z,20.52
2017-11-05T03:00:55.495Z,19.20
2017-11-05T03:03:24.510Z,18.70
2017-11-05T03:05:53.454Z,24.42
2017-11-05T03:08:22.461Z,19.85
2017-11-05T03:10:51.534Z,21.08
2017-11-05T03:13:21.305Z,23.02
2017-11-05T03:15:53.164Z,25.58
2017-11-05T03:18:22.132Z,19.87
2017-11-05T03:20:52.811Z,23.90
2017-11-05T03:23:22.240Z,23.60
2017-11-05T03:25:51.284Z,22.87
2017-11-05T03:28:20.354Z,22.35
2017-11-05T03:30:49.320Z,27.33
2017-11-05T03:33:18.351Z,24.00
2017-11-05T03:35:47.358Z,28.80
2017-11-05T03:38:16.395Z,26.80
2017-11-05T03:40:45.443Z,25.08
2017-11-05T03:43:14.744Z,22.05
2017-11-05T03:45:43.848Z,25.70
2017-11-05T03:48:12.775Z,19.10
2017-11-05T03:50:41.739Z,20.98
2017-11-05T03:53:11.019Z,21.77
2017-11-05T03:55:40.891Z,21.67
2017-11-05T03:58:09.848Z,20.50
2017-11-05T04:00:39.234Z,22.60
2017-11-05T04:03:08.235Z,24.33
2017-11-05T04:05:37.222Z,25.55
2017-11-05T04:08:06.183Z,22.67
2017-11-05T04:10:35.183Z,22.10
2017-11-05T04:13:04.161Z,25.62
2017-11-05T04:15:33.173Z,22.13
2017-11-05T04:18:02.206Z,25.60
2017-11-05T04:20:32.061Z,22.85
2017-11-05T04:23:01.151Z,26.90
2017-11-05T04:25:30.199Z,25.95
2017-11-05T04:27:59.957Z,28.52
2017-11-05T04:30:28.975Z,33.47
2017-11-05T04:32:58.007Z,29.30
2017-11-05T04:35:27.926Z,27.73
2017-11-05T04:38:01.107Z,30.08
2017-11-05T04:40:30.148Z,29.10
2017-11-05T04:42:59.223Z,30.62
2017-11-05T04:45:28.568Z,30.08
2017-11-05T04:47:58.295Z,33.25
2017-11-05T04:50:28.070Z,31.20
2017-11-05T04:52:57.133Z,32.00
2017-11-05T04:55:26.099Z,31.02
2017-11-05T04:57:55.949Z,37.30
2017-11-05T05:00:25.010Z,34.92
2017-11-05T05:02:54.894Z,36.40
2017-11-05T05:05:24.076Z,36.00
2017-11-05T05:07:53.574Z,44.42
2017-11-05T05:10:22.778Z,35.22
2017-11-05T05:12:52.179Z,41.00
2017-11-05T05:15:21.491Z,40.97
2017-11-05T05:17:51.075Z,41.30
2017-11-05T05:20:20.144Z,41.45
2017-11-05T05:22:52.404Z,38.47
2017-11-05T05:25:21.617Z,39.88
2017-11-05T05:27:52.085Z,37.60
2017-11-05T05:30:21.156Z,38.00
2017-11-05T05:32:50.154Z,37.45
2017-11-05T05:35:19.913Z,33.95
2017-11-05T05:37:49.214Z,32.25
2017-11-05T05:40:19.036Z,34.42
2017-11-05T05:42:48.816Z,35.60
2017-11-05T05:45:17.912Z,39.95
2017-11-05T05:47:47.077Z,32.97
2017-11-05T05:50:16.410Z,33.45
2017-11-05T05:52:45.410Z,35.60
2017-11-05T05:55:14.501Z,35.60
2017-11-05T05:57:44.305Z,33.10
2017-11-05T06:00:13.484Z,33.42
2017-11-05T06:02:42.495Z,27.75
2017-11-05T06:05:11.587Z,32.08
2017-11-05T06:07:40.626Z,25.52
2017-11-05T06:10:10.781Z,29.05
2017-11-05T06:12:44.042Z,35.13
2017-11-05T06:15:13.501Z,45.30
2017-11-05T06:17:42.900Z,57.38
2017-11-05T06:20:13.382Z,56.30
2017-11-05T06:22:42.466Z,52.90
2017-11-05T06:25:13.376Z,50.05
2017-11-05T06:27:42.730Z,45.70
2017-11-05T06:30:12.522Z,43.83
2017-11-05T06:32:41.801Z,34.97
2017-11-05T06:35:11.410Z,33.20
2017-11-05T06:37:40.484Z,35.00
2017-11-05T06:40:09.626Z,41.17
2017-11-05T06:42:38.652Z,40.92
2017-11-05T06:45:07.662Z,40.53
2017-11-05T06:47:36.866Z,36.83
2017-11-05T06:50:06.086Z,35.33
2017-11-05T06:52:35.851Z,25.37
2017-11-05T06:55:05.659Z,26.73
2017-11-05T06:57:34.906Z,21.02
2017-11-05T07:00:04.812Z,18.25
2017-11-05T07:02:34.819Z,18.77
2017-11-05T07:05:04.158Z,12.55
2017-11-05T07:07:33.897Z,15.85
2017-11-05T07:10:02.961Z,10.93
2017-11-05T07:12:32.015Z,11.75
2017-11-05T07:15:01.080Z,11.65
2017-11-05T07:17:30.866Z,11.27
2017-11-05T07:20:00.014Z,12.57
2017-11-05T07:22:29.050Z,11.40
2017-11-05T07:24:58.836Z,13.27
2017-11-05T07:27:28.674Z,14.55
2017-11-05T07:30:00.575Z,12.55
2017-11-05T07:32:29.587Z,12.35
2017-11-05T07:34:58.619Z,12.20
2017-11-05T07:37:28.405Z,12.43
2017-11-05T07:39:58.203Z,12.65
2017-11-05T07:42:27.301Z,14.60
2017-11-05T07:44:56.388Z,14.43
2017-11-05T07:47:25.358Z,11.43
2017-11-05T07:49:54.325Z,13.10
2017-11-05T07:52:23.407Z,11.88
2017-11-05T07:54:53.246Z,12.80
2017-11-05T07:57:22.287Z,17.60
2017-11-05T07:59:51.353Z,10.73
2017-11-05T08:02:20.453Z,11.18
2017-11-05T08:05:20.131Z,12.02
2017-11-05T08:07:49.138Z,11.00
2017-11-05T08:10:18.677Z,11.40
2017-11-05T08:12:48.482Z,10.80
2017-11-05T08:15:24.302Z,11.98
2017-11-05T08:17:53.303Z,11.18
2017-11-05T08:20:22.314Z,11.30
2017-11-05T08:22:51.665Z,10.90
2017-11-05T08:25:25.979Z,10.30
2017-11-05T08:27:55.657Z,12.57
2017-11-05T08:30:24.631Z,10.23
2017-11-05T08:32:53.602Z,11.75
2017-11-05T08:35:23.350Z,10.88
2017-11-05T08:37:52.300Z,9.50
2017-11-05T08:40:21.330Z,10.52
2017-11-05T08:42:50.491Z,11.85
2017-11-05T08:45:19.549Z,11.52
2017-11-05T08:47:48.526Z,9.05
2017-11-05T08:50:17.627Z,9.98
2017-11-05T08:52:47.518Z,9.95
2017-11-05T08:55:17.046Z,7.95
2017-11-05T08:57:46.936Z,9.50
2017-11-05T09:00:16.285Z,7.50
2017-11-05T09:02:49.965Z,6.82
2017-11-05T09:05:23.870Z,7.60
2017-11-05T09:07:53.003Z,9.07
2017-11-05T09:10:22.303Z,8.10
2017-11-05T09:12:52.471Z,6.70
2017-11-05T09:15:23.879Z,7.00
2017-11-05T09:17:53.442Z,6.22
2017-11-05T09:20:22.579Z,6.20
2017-11-05T09:22:56.364Z,6.30
2017-11-05T09:25:26.286Z,7.32
2017-11-05T09:27:55.303Z,7.40
2017-11-05T09:30:24.286Z,7.00
2017-11-05T09:32:53.349Z,6.60
2017-11-05T09:35:22.367Z,6.57
2017-11-05T09:37:52.474Z,7.43
2017-11-05T09:40:26.558Z,6.50
2017-11-05T09:42:55.490Z,6.97
2017-11-05T09:45:25.155Z,5.68
2017-11-05T09:47:55.412Z,5.70
2017-11-05T09:50:24.604Z,6.60
2017-11-05T09:52:54.477Z,6.12
2017-11-05T09:55:24.118Z,6.57
2017-11-05T09:57:53.069Z,5.43
2017-11-05T10:00:22.879Z,6.47
2017-11-05T10:02:51.776Z,6.35
2017-11-05T10:05:20.695Z,3.85
2017-11-05T10:07:49.662Z,4.78
2017-11-05T10:10:18.559Z,3.90
2017-11-05T10:12:47.873Z,3.03
2017-11-05T10:15:17.425Z,3.35
2017-11-05T10:17:46.333Z,3.00
2017-11-05T10:20:15.770Z,5.40
2017-11-05T10:22:44.844Z,4.50
2017-11-05T10:25:13.755Z,3.80
2017-11-05T10:27:42.909Z,3.60
2017-11-05T10:30:11.834Z,5.50
2017-11-05T10:32:40.789Z,4.78
2017-11-05T10:35:10.180Z,3.95
2017-11-05T10:37:40.168Z,2.25
2017-11-05T10:40:09.062Z,2.87
2017-11-05T10:42:38.046Z,2.35
2017-11-05T10:45:07.011Z,2.20
2017-11-05T10:47:36.314Z,2.42
2017-11-05T10:50:10.062Z,2.60
2017-11-05T10:52:39.193Z,2.35
2017-11-05T10:55:08.168Z,3.55
2017-11-05T10:57:37.883Z,2.40
2017-11-05T11:00:06.887Z,2.78
2017-11-05T11:02:35.794Z,4.15
2017-11-05T11:05:04.843Z,2.22
2017-11-05T11:07:34.498Z,4.12
2017-11-05T11:10:03.748Z,2.33
2017-11-05T11:12:33.474Z,2.35
2017-11-05T11:15:03.017Z,2.55
2017-11-05T11:17:31.963Z,1.73
2017-11-05T11:20:03.672Z,4.10
2017-11-05T11:22:32.734Z,2.55
2017-11-05T11:25:02.479Z,4.22
2017-11-05T11:27:31.822Z,2.37
2017-11-05T11:30:03.034Z,4.25
2017-11-05T11:32:32.256Z,6.22
2017-11-05T11:35:02.606Z,3.40
2017-11-05T11:37:31.487Z,4.37
2017-11-05T11:40:00.382Z,2.03
2017-11-05T11:42:30.184Z,2.10
2017-11-05T11:44:59.135Z,2.35
2017-11-05T11:47:28.067Z,3.12
2017-11-05T11:49:57.776Z,5.60
2017-11-05T11:52:27.576Z,1.87
2017-11-05T11:54:57.293Z,3.72
2017-11-05T11:57:26.330Z,3.42
2017-11-05T11:59:55.251Z,3.20
2017-11-05T12:02:24.468Z,3.05
2017-11-05T12:04:53.742Z,2.05
2017-11-05T12:07:23.013Z,4.15
2017-11-05T12:09:53.524Z,4.57
2017-11-05T12:12:23.592Z,8.18
2017-11-05T12:14:53.395Z,3.85
2017-11-05T12:17:22.434Z,2.72
2017-11-05T12:19:51.965Z,4.47
2017-11-05T12:22:21.175Z,2.75
2017-11-05T12:24:51.284Z,2.53
2017-11-05T12:27:34.737Z,3.50
2017-11-05T12:30:04.162Z,3.28
2017-11-05T12:32:35.699Z,2.58
2017-11-05T12:35:05.242Z,4.25
2017-11-05T12:37:37.242Z,4.60
2017-11-05T12:40:07.108Z,3.37
2017-11-05T12:42:37.860Z,3.20
2017-11-05T12:45:07.198Z,6.32
2017-11-05T12:47:36.887Z,3.20
2017-11-05T12:50:05.840Z,4.85
2017-11-05T12:52:34.816Z,3.20
2017-11-05T12:55:04.128Z,3.10
2017-11-05T12:57:33.316Z,10.05
2017-11-05T13:00:02.970Z,3.40
2017-11-05T13:02:32.037Z,6.20
2017-11-05T13:05:01.734Z,7.62
2017-11-05T13:07:30.780Z,3.78
2017-11-05T13:09:59.677Z,4.20
2017-11-05T13:12:28.784Z,3.85
2017-11-05T13:14:58.149Z,4.47
2017-11-05T13:17:27.851Z,4.95
2017-11-05T13:19:57.533Z,4.78
2017-11-05T13:22:30.738Z,5.07
2017-11-05T13:24:59.689Z,4.05
2017-11-05T13:27:28.604Z,5.15
2017-11-05T13:29:57.575Z,4.50
2017-11-05T13:32:26.575Z,3.33
2017-11-05T13:34:55.484Z,3.45
2017-11-05T13:37:24.489Z,5.40
2017-11-05T13:39:54.226Z,8.45
2017-11-05T13:42:23.251Z,3.80
2017-11-05T13:44:53.153Z,3.92
2017-11-05T13:47:24.855Z,3.95
2017-11-05T13:49:54.261Z,5.37
2017-11-05T13:52:23.372Z,4.22
2017-11-05T13:54:53.147Z,4.37
2017-11-05T13:57:22.975Z,3.83
2017-11-05T13:59:52.470Z,5.22
2017-11-05T14:02:21.403Z,8.57
2017-11-05T14:04:51.102Z,7.05
2017-11-05T14:07:20.872Z,6.28
2017-11-05T14:09:50.582Z,5.35
2017-11-05T14:12:19.603Z,4.80
2017-11-05T14:14:49.678Z,4.80
2017-11-05T14:17:18.590Z,4.37
2017-11-05T14:19:47.583Z,4.95
2017-11-05T14:22:16.584Z,4.60
2017-11-05T14:24:46.316Z,3.80
2017-11-05T14:27:16.327Z,7.25
2017-11-05T14:29:46.023Z,5.20
2017-11-05T14:32:15.059Z,6.00
2017-11-05T14:34:44.079Z,9.00
2017-11-05T14:37:13.082Z,4.60
2017-11-05T14:39:42.062Z,5.00
2017-11-05T14:42:11.790Z,5.22
2017-11-05T14:44:41.740Z,5.57
2017-11-05T14:47:11.627Z,5.03
2017-11-05T14:49:40.589Z,6.95
2017-11-05T14:52:09.555Z,4.50
2017-11-05T14:54:38.577Z,7.30
2017-11-05T14:57:08.378Z,5.62
2017-11-05T14:59:38.116Z,5.53
2017-11-05T15:02:07.143Z,5.10
2017-11-05T15:04:37.246Z,5.78
2017-11-05T15:07:06.199Z,6.35
2017-11-05T15:09:38.765Z,6.05
2017-11-05T15:12:08.552Z,3.90
2017-11-05T15:14:38.311Z,3.65
2017-11-05T15:17:08.035Z,4.90
2017-11-05T15:19:37.801Z,4.18
2017-11-05T15:22:07.502Z,4.43
2017-11-05T15:24:37.340Z,3.83
2017-11-05T15:27:06.348Z,5.18
2017-11-05T15:29:35.339Z,4.60
2017-11-05T15:32:04.405Z,3.58
2017-11-05T15:34:37.894Z,4.72
2017-11-05T15:37:07.616Z,6.40
2017-11-05T15:39:37.378Z,5.10
2017-11-05T15:42:07.119Z,4.78
2017-11-05T15:44:36.947Z,5.40
2017-11-05T15:47:06.015Z,4.43
2017-11-05T15:49:35.855Z,5.70
2017-11-05T15:52:05.019Z,8.27
2017-11-05T15:54:34.921Z,4.28
2017-11-05T15:57:04.034Z,5.87
2017-11-05T15:59:33.807Z,5.25
2017-11-05T16:02:02.904Z,6.43
2017-11-05T16:04:31.887Z,6.40
2017-11-05T16:07:01.650Z,6.90
2017-11-05T16:09:31.445Z,8.18
2017-11-05T16:12:00.417Z,5.10
2017-11-05T16:14:29.322Z,5.50
2017-11-05T16:16:58.326Z,7.97
2017-11-05T16:19:27.300Z,8.95
2017-11-05T16:21:56.328Z,10.95
2017-11-05T16:24:26.063Z,7.72
2017-11-05T16:26:55.113Z,8.65
2017-11-05T16:29:24.900Z,6.60
2017-11-05T16:31:53.807Z,9.27
2017-11-05T16:34:22.769Z,10.23
2017-11-05T16:36:51.780Z,10.05
2017-11-05T16:39:20.793Z,7.60
2017-11-05T16:41:50.710Z,9.05
2017-11-05T16:44:21.591Z,8.75
2017-11-05T16:46:50.546Z,8.73
2017-11-05T16:49:20.280Z,10.60
2017-11-05T16:51:49.206Z,10.32
2017-11-05T16:54:18.167Z,11.75
2017-11-05T16:56:47.182Z,10.73
2017-11-05T16:59:16.220Z,11.30
2017-11-05T17:01:46.046Z,12.43
2017-11-05T17:04:15.768Z,11.88
2017-11-05T17:06:45.793Z,12.85
2017-11-05T17:09:14.892Z,13.23
2017-11-05T17:11:44.711Z,14.60
2017-11-05T17:14:13.735Z,15.25
2017-11-05T17:16:42.760Z,11.95
2017-11-05T17:19:12.525Z,15.20
2017-11-05T17:21:42.270Z,16.52
2017-11-05T17:24:17.062Z,14.80
2017-11-05T17:26:46.100Z,15.85
2017-11-05T17:29:15.913Z,18.58
2017-11-05T17:31:45.660Z,17.25
2017-11-05T17:34:14.777Z,19.55
2017-11-05T17:36:43.846Z,17.10
2017-11-05T17:39:12.818Z,21.65
2017-11-05T17:41:42.494Z,18.00
2017-11-05T17:44:11.448Z,20.15
2017-11-05T17:46:40.500Z,20.80
2017-11-05T17:49:10.879Z,22.55
2017-11-05T17:51:45.226Z,19.65
2017-11-05T17:54:14.244Z,18.92
2017-11-05T17:56:43.948Z,19.77
2017-11-05T17:59:12.960Z,19.50
2017-11-05T18:01:43.013Z,19.10
2017-11-05T18:04:12.003Z,20.75
2017-11-05T18:06:40.981Z,20.58
2017-11-05T18:09:09.982Z,24.77
2017-11-05T18:11:39.858Z,25.48
2017-11-05T18:14:09.658Z,25.20
2017-11-05T18:16:39.475Z,21.95
2017-11-05T18:19:08.467Z,21.83
2017-11-05T18:21:38.270Z,21.10
2017-11-05T18:24:07.329Z,25.37
2017-11-05T18:26:47.865Z,20.50
2017-11-05T18:29:17.657Z,23.35
2017-11-05T18:31:48.004Z,29.58
2017-11-05T18:34:23.230Z,24.35
2017-11-05T18:37:02.617Z,27.48
2017-11-05T18:39:31.699Z,26.08
2017-11-05T18:42:00.760Z,29.50
2017-11-05T18:44:30.167Z,29.60
2017-11-05T18:46:59.964Z,25.90
2017-11-05T18:49:29.144Z,26.80
2017-11-05T18:51:59.019Z,29.77
2017-11-05T18:54:28.117Z,27.20
2017-11-05T18:56:57.229Z,31.00
2017-11-05T18:59:26.313Z,28.33
2017-11-05T19:01:55.475Z,29.52
2017-11-05T19:04:25.995Z,28.02
2017-11-05T19:06:55.299Z,26.65
2017-11-05T19:09:24.812Z,26.25
2017-11-05T19:11:54.607Z,25.88
2017-11-05T19:14:24.617Z,25.70
2017-11-05T19:16:54.086Z,23.23
2017-11-05T19:19:23.513Z,23.62
2017-11-05T19:21:53.077Z,23.95
2017-11-05T19:24:23.972Z,22.90
2017-11-05T19:26:53.575Z,23.40
2017-11-05T19:29:23.577Z,25.85
2017-11-05T19:31:52.651Z,21.45
2017-11-05T19:34:22.167Z,27.45
2017-11-05T19:36:59.043Z,20.67
2017-11-05T19:39:32.361Z,19.15
2017-11-05T19:42:07.357Z,21.83
2017-11-05T19:44:37.758Z,20.15
2017-11-05T19:47:08.005Z,19.65
2017-11-05T19:49:38.174Z,20.10
2017-11-05T19:54:45.778Z,12.10
2017-11-05T19:57:14.966Z,11.98
2017-11-05T19:59:44.932Z,13.55
2017-11-05T20:02:14.145Z,12.32
2017-11-05T20:04:43.370Z,10.23
2017-11-05T20:07:12.661Z,12.05
2017-11-05T20:09:42.660Z,12.98
2017-11-05T20:12:11.788Z,14.00
2017-11-05T20:14:40.993Z,11.20
2017-11-05T20:17:10.998Z,9.02
2017-11-05T20:19:40.977Z,8.80
2017-11-05T20:22:10.219Z,12.13
2017-11-05T20:24:40.494Z,9.40
2017-11-05T20:27:09.898Z,11.70
2017-11-05T20:29:39.108Z,13.18
2017-11-05T20:32:08.215Z,17.95
2017-11-05T20:34:37.703Z,11.05
2017-11-05T20:37:06.839Z,12.20
2017-11-05T20:39:36.796Z,12.10
2017-11-05T20:42:06.059Z,9.25
2017-11-05T20:44:36.221Z,13.73
2017-11-05T20:47:06.174Z,11.10
2017-11-05T20:49:36.108Z,11.45
2017-11-05T20:52:06.064Z,10.95
2017-11-05T20:54:35.380Z,9.05
2017-11-05T20:57:04.618Z,14.90
2017-11-05T20:59:34.368Z,13.02
2017-11-05T21:02:04.008Z,11.55
2017-11-05T21:04:33.068Z,10.80
2017-11-05T21:07:12.801Z,13.75
2017-11-05T21:09:42.032Z,12.30
2017-11-05T21:12:11.291Z,13.75
2017-11-05T21:14:41.125Z,12.30
2017-11-05T21:17:10.222Z,20.95
2017-11-05T21:19:39.288Z,18.05
2017-11-05T21:22:09.127Z,15.05
2017-11-05T21:24:42.104Z,17.00
2017-11-05T21:27:11.086Z,14.00
2017-11-05T21:29:40.835Z,20.23
2017-11-05T21:32:10.122Z,18.50
2017-11-05T21:34:44.269Z,20.60
2017-11-05T21:37:13.269Z,19.02
2017-11-05T21:39:43.059Z,16.73
2017-11-05T21:42:12.880Z,19.45
2017-11-05T21:44:51.628Z,18.20
2017-11-05T21:47:21.357Z,22.08
2017-11-05T21:49:51.103Z,21.67
2017-11-05T21:52:20.157Z,19.23
2017-11-05T21:54:49.859Z,19.02
2017-11-05T21:57:19.595Z,25.00
2017-11-05T21:59:48.739Z,17.42
2017-11-05T22:02:17.795Z,19.40
2017-11-05T22:04:46.746Z,16.45
2017-11-05T22:07:16.498Z,18.90
2017-11-05T22:09:45.449Z,18.98
2017-11-05T22:12:14.418Z,20.60
2017-11-05T22:14:43.310Z,20.30
2017-11-05T22:17:12.299Z,18.73
2017-11-05T22:19:41.219Z,22.08
2017-11-05T22:22:10.171Z,19.20
2017-11-05T22:24:39.162Z,18.90
2017-11-05T22:27:08.072Z,19.95
2017-11-05T22:29:36.949Z,23.75
2017-11-05T22:32:05.882Z,18.92
2017-11-05T22:34:35.568Z,21.65
2017-11-05T22:37:04.486Z,20.55
2017-11-05T22:39:34.223Z,19.12
2017-11-05T22:42:03.225Z,20.90
2017-11-05T22:44:32.170Z,21.27
2017-11-05T22:47:01.896Z,21.23
2017-11-05T22:49:31.574Z,19.58
2017-11-05T22:52:00.507Z,26.05
2017-11-05T22:54:29.446Z,23.08
2017-11-05T22:56:58.621Z,22.23
2017-11-05T22:59:27.506Z,21.45
2017-11-05T23:01:56.426Z,21.23
2017-11-05T23:04:25.338Z,21.08
2017-11-05T23:06:55.031Z,23.80
2017-11-05T23:09:23.934Z,22.05
2017-11-05T23:11:53.216Z,22.92
2017-11-05T23:14:22.094Z,26.45
2017-11-05T23:16:51.445Z,23.77
2017-11-05T23:19:21.129Z,21.45
2017-11-05T23:21:50.004Z,21.67
2017-11-05T23:24:18.907Z,21.05
2017-11-05T23:26:47.860Z,22.90
2017-11-05T23:29:16.779Z,26.67
2017-11-05T23:31:45.707Z,23.65
2017-11-05T23:34:15.360Z,23.75
2017-11-05T23:36:44.268Z,23.67
2017-11-05T23:39:13.179Z,24.98
2017-11-05T23:41:42.871Z,22.92
2017-11-05T23:44:11.766Z,23.38
2017-11-05T23:46:40.664Z,28.15
2017-11-05T23:49:09.617Z,27.55
2017-11-05T23:51:38.527Z,26.02
2017-11-05T23:54:07.714Z,30.42
2017-11-05T23:56:36.598Z,29.50
2017-11-05T23:59:05.511Z,26.08
